TimeCDT,TemperatureF,Dew PointF,Humidity,Sea Level PressureIn,VisibilityMPH,Wind Direction,Wind SpeedMPH,Gust SpeedMPH,PrecipitationIn,Events,Conditions,WindDirDegrees,DateUTC
12:15 AM,43.3,30.2,60,29.92,10.0,South,5.8,-,N/A,,Clear,170,2014-04-07 05:15:00
12:35 AM,42.6,29.3,59,29.92,10.0,SSE,5.8,-,N/A,,Clear,160,2014-04-07 05:35:00
12:55 AM,40.1,30.6,69,29.92,10.0,SSE,6.9,-,N/A,,Clear,150,2014-04-07 05:55:00
1:15 AM,41.0,30.2,65,29.91,10.0,South,4.6,-,N/A,,Clear,170,2014-04-07 06:15:00
1:35 AM,40.1,30.0,67,29.91,10.0,Calm,Calm,-,N/A,,Clear,0,2014-04-07 06:35:00
1:55 AM,40.5,29.8,66,29.91,10.0,SE,3.5,-,N/A,,Clear,140,2014-04-07 06:55:00
2:15 AM,40.3,29.8,66,29.90,10.0,SSE,4.6,-,N/A,,Clear,160,2014-04-07 07:15:00
2:35 AM,39.0,29.7,69,29.90,10.0,SE,3.5,-,N/A,,Mostly Cloudy,140,2014-04-07 07:35:00
2:55 AM,39.2,29.8,69,29.89,10.0,ESE,6.9,-,N/A,,Overcast,120,2014-04-07 07:55:00
3:15 AM,39.2,30.0,70,29.87,10.0,ESE,8.1,-,N/A,,Overcast,120,2014-04-07 08:15:00
3:35 AM,38.7,30.2,72,29.87,10.0,SE,5.8,-,N/A,,Overcast,140,2014-04-07 08:35:00
3:55 AM,40.1,29.7,66,29.87,10.0,SE,5.8,-,N/A,,Overcast,130,2014-04-07 08:55:00
4:15 AM,39.9,29.8,67,29.86,10.0,SE,4.6,-,N/A,,Overcast,140,2014-04-07 09:15:00
4:35 AM,39.6,29.8,68,29.86,10.0,SE,5.8,-,N/A,,Overcast,130,2014-04-07 09:35:00
4:55 AM,39.9,29.7,67,29.85,10.0,SE,4.6,-,N/A,,Overcast,130,2014-04-07 09:55:00
5:15 AM,39.4,29.8,69,29.85,10.0,ESE,5.8,-,N/A,,Overcast,120,2014-04-07 10:15:00
5:35 AM,39.4,29.5,68,29.85,10.0,ESE,3.5,-,N/A,,Mostly Cloudy,120,2014-04-07 10:35:00
5:55 AM,39.7,29.1,66,29.85,10.0,ESE,3.5,-,N/A,,Scattered Clouds,120,2014-04-07 10:55:00
6:15 AM,39.4,29.3,67,29.86,10.0,SE,4.6,-,N/A,,Scattered Clouds,140,2014-04-07 11:15:00
6:35 AM,39.6,29.3,67,29.86,10.0,SSE,3.5,-,N/A,,Clear,150,2014-04-07 11:35:00
6:55 AM,38.8,29.3,69,29.87,10.0,SE,4.6,-,N/A,,Mostly Cloudy,140,2014-04-07 11:55:00
7:15 AM,39.2,29.7,69,29.87,10.0,SE,5.8,-,N/A,,Scattered Clouds,130,2014-04-07 12:15:00
7:35 AM,39.7,30.2,69,29.88,10.0,SSE,3.5,-,N/A,,Scattered Clouds,160,2014-04-07 12:35:00
7:55 AM,40.5,30.7,68,29.87,10.0,SE,4.6,-,N/A,,Scattered Clouds,130,2014-04-07 12:55:00
8:15 AM,41.5,31.1,66,29.86,10.0,Calm,Calm,-,N/A,,Scattered Clouds,0,2014-04-07 13:15:00
8:35 AM,42.8,31.3,64,29.84,10.0,SE,3.5,-,N/A,,Scattered Clouds,130,2014-04-07 13:35:00
8:55 AM,45.3,31.5,58,29.84,10.0,ESE,4.6,-,N/A,,Scattered Clouds,120,2014-04-07 13:55:00
9:15 AM,46.9,29.5,51,29.82,10.0,Calm,Calm,-,N/A,,Scattered Clouds,0,2014-04-07 14:15:00
9:35 AM,48.4,29.7,48,29.82,10.0,SW,4.6,-,N/A,,Clear,230,2014-04-07 14:35:00
9:55 AM,50.0,29.7,46,29.81,10.0,WSW,4.6,-,N/A,,Clear,250,2014-04-07 14:55:00
10:15 AM,50.7,29.7,44,29.81,10.0,SW,4.6,-,N/A,,Clear,230,2014-04-07 15:15:00
10:55 AM,52.7,27.5,38,29.79,10.0,Calm,Calm,-,N/A,,Clear,0,2014-04-07 15:55:00
11:15 AM,53.4,27.7,37,29.78,10.0,Calm,Calm,-,N/A,,Clear,0,2014-04-07 16:15:00
11:35 AM,54.5,27.5,35,29.77,10.0,Calm,Calm,-,N/A,,Clear,0,2014-04-07 16:35:00
11:55 AM,55.9,27.7,34,29.76,10.0,NE,4.6,-,N/A,,Clear,50,2014-04-07 16:55:00
12:15 PM,56.5,28.0,34,29.75,10.0,Calm,Calm,-,N/A,,Clear,0,2014-04-07 17:15:00
12:35 PM,57.0,28.2,33,29.74,10.0,NNE,6.9,-,N/A,,Clear,20,2014-04-07 17:35:00
12:55 PM,58.5,27.5,31,29.72,10.0,NNE,4.6,-,N/A,,Scattered Clouds,30,2014-04-07 17:55:00
1:15 PM,57.4,27.7,32,29.71,10.0,NNE,5.8,-,N/A,,Mostly Cloudy,20,2014-04-07 18:15:00
1:35 PM,58.5,27.7,31,29.70,10.0,North,5.8,-,N/A,,Overcast,360,2014-04-07 18:35:00
1:55 PM,59.5,27.9,30,29.70,10.0,North,4.6,-,N/A,,Overcast,350,2014-04-07 18:55:00
2:15 PM,58.3,28.4,32,29.69,10.0,North,6.9,-,N/A,,Overcast,350,2014-04-07 19:15:00
2:35 PM,58.1,28.2,32,29.68,10.0,NW,8.1,-,N/A,,Overcast,320,2014-04-07 19:35:00
2:55 PM,58.3,28.4,32,29.67,10.0,North,8.1,-,N/A,,Overcast,360,2014-04-07 19:55:00
3:15 PM,57.6,28.9,34,29.67,10.0,NW,6.9,-,N/A,,Overcast,320,2014-04-07 20:15:00
3:35 PM,57.2,30.4,36,29.67,10.0,NW,9.2,-,N/A,,Overcast,310,2014-04-07 20:35:00
3:55 PM,56.7,30.9,38,29.67,10.0,NW,6.9,-,N/A,,Overcast,310,2014-04-07 20:55:00
4:15 PM,56.8,30.6,37,29.66,10.0,NW,6.9,-,N/A,,Overcast,320,2014-04-07 21:15:00
4:35 PM,57.2,31.6,38,29.66,10.0,NNW,8.1,-,N/A,,Overcast,330,2014-04-07 21:35:00
4:55 PM,57.6,31.5,37,29.66,10.0,NNW,9.2,-,N/A,,Overcast,330,2014-04-07 21:55:00
5:15 PM,57.2,32.0,38,29.66,10.0,NNW,9.2,-,N/A,,Overcast,340,2014-04-07 22:15:00
5:35 PM,56.3,32.7,41,29.65,10.0,NNW,6.9,-,N/A,,Overcast,330,2014-04-07 22:35:00
5:55 PM,55.8,33.3,43,29.65,10.0,North,4.6,-,N/A,,Overcast,350,2014-04-07 22:55:00
6:15 PM,54.9,35.1,47,29.65,10.0,NNW,4.6,-,N/A,,Overcast,340,2014-04-07 23:15:00
6:35 PM,54.1,35.8,50,29.65,10.0,NNW,4.6,-,N/A,,Overcast,340,2014-04-07 23:35:00
6:55 PM,53.8,34.9,49,29.65,10.0,NNW,3.5,-,N/A,,Overcast,330,2014-04-07 23:55:00
7:15 PM,53.1,34.9,50,29.64,10.0,Calm,Calm,-,N/A,,Overcast,0,2014-04-08 00:15:00
7:35 PM,52.7,35.1,51,29.65,10.0,NW,5.8,-,N/A,,Overcast,310,2014-04-08 00:35:00
7:55 PM,53.1,35.6,52,29.65,10.0,NW,6.9,-,N/A,,Overcast,310,2014-04-08 00:55:00
8:15 PM,51.3,38.3,61,29.65,10.0,NW,10.4,-,N/A,,Mostly Cloudy,310,2014-04-08 01:15:00
8:35 PM,49.5,40.1,70,29.66,10.0,NW,10.4,-,N/A,,Mostly Cloudy,310,2014-04-08 01:35:00
8:55 PM,48.6,41.2,76,29.66,10.0,NW,10.4,-,N/A,,Overcast,310,2014-04-08 01:55:00
9:15 PM,47.8,41.5,79,29.67,10.0,NW,10.4,-,N/A,,Mostly Cloudy,320,2014-04-08 02:15:00
9:35 PM,47.1,41.9,82,29.67,10.0,NW,8.1,-,N/A,,Mostly Cloudy,320,2014-04-08 02:35:00
9:55 PM,46.9,42.4,84,29.67,10.0,NW,5.8,-,N/A,,Overcast,320,2014-04-08 02:55:00
10:15 PM,46.8,42.6,85,29.66,10.0,NNW,9.2,-,N/A,,Mostly Cloudy,330,2014-04-08 03:15:00
10:35 PM,47.1,42.6,84,29.66,10.0,NW,8.1,-,N/A,,Scattered Clouds,320,2014-04-08 03:35:00
10:55 PM,46.6,42.1,84,29.66,10.0,NW,9.2,-,N/A,,Mostly Cloudy,320,2014-04-08 03:55:00
11:15 PM,46.6,41.9,84,29.66,10.0,NW,6.9,-,N/A,,Overcast,320,2014-04-08 04:15:00
11:35 PM,46.9,41.9,83,29.66,10.0,NW,9.2,18.4,N/A,Rain,Rain,320,2014-04-08 04:35:00
11:55 PM,46.2,42.1,85,29.66,10.0,NW,6.9,-,N/A,Rain,Light Rain,320,2014-04-08 04:55:00